sensor_id;sensor_type;location;lat;lon;timestamp;P1;durP1;ratioP1;P2;durP2;ratioP2
16813;SDS011;8524;57.650;11.926;2022-07-01T00:00:54;3.83;;;2.50;;
16813;SDS011;8524;57.650;11.926;2022-07-01T00:03:22;2.50;;;2.30;;
16813;SDS011;8524;57.650;11.926;2022-07-01T00:05:49;2.50;;;2.30;;
16813;SDS011;8524;57.650;11.926;2022-07-01T00:08:16;2.47;;;2.27;;
16813;SDS011;8524;57.650;11.926;2022-07-01T00:10:43;3.37;;;2.30;;
16813;SDS011;8524;57.650;11.926;2022-07-01T00:13:10;3.13;;;2.73;;
16813;SDS011;8524;57.650;11.926;2022-07-01T00:15:37;2.50;;;2.30;;
16813;SDS011;8524;57.650;11.926;2022-07-01T00:18:04;2.80;;;2.60;;
16813;SDS011;8524;57.650;11.926;2022-07-01T00:20:32;3.83;;;2.63;;
16813;SDS011;8524;57.650;11.926;2022-07-01T00:22:59;2.90;;;2.70;;
16813;SDS011;8524;57.650;11.926;2022-07-01T00:25:26;2.63;;;2.43;;
16813;SDS011;8524;57.650;11.926;2022-07-01T00:27:53;3.27;;;2.73;;
16813;SDS011;8524;57.650;11.926;2022-07-01T00:30:20;2.90;;;2.70;;
16813;SDS011;8524;57.650;11.926;2022-07-01T00:32:47;3.27;;;2.93;;
16813;SDS011;8524;57.650;11.926;2022-07-01T00:35:14;3.83;;;2.40;;
16813;SDS011;8524;57.650;11.926;2022-07-01T00:37:42;3.00;;;2.70;;
16813;SDS011;8524;57.650;11.926;2022-07-01T00:40:09;2.70;;;2.50;;
16813;SDS011;8524;57.650;11.926;2022-07-01T00:42:38;2.90;;;2.60;;
16813;SDS011;8524;57.650;11.926;2022-07-01T00:45:07;2.50;;;2.30;;
16813;SDS011;8524;57.650;11.926;2022-07-01T00:47:35;2.40;;;2.20;;
16813;SDS011;8524;57.650;11.926;2022-07-01T00:50:03;2.80;;;2.60;;
16813;SDS011;8524;57.650;11.926;2022-07-01T00:52:33;3.13;;;2.50;;
16813;SDS011;8524;57.650;11.926;2022-07-01T00:55:02;2.90;;;2.70;;
16813;SDS011;8524;57.650;11.926;2022-07-01T00:57:30;2.97;;;2.77;;
16813;SDS011;8524;57.650;11.926;2022-07-01T00:59:58;4.03;;;3.13;;
16813;SDS011;8524;57.650;11.926;2022-07-01T01:02:25;3.67;;;3.23;;
16813;SDS011;8524;57.650;11.926;2022-07-01T01:04:52;2.90;;;2.70;;
16813;SDS011;8524;57.650;11.926;2022-07-01T01:07:19;3.63;;;3.33;;
16813;SDS011;8524;57.650;11.926;2022-07-01T01:09:46;4.10;;;3.50;;
16813;SDS011;8524;57.650;11.926;2022-07-01T01:12:14;3.53;;;3.27;;
16813;SDS011;8524;57.650;11.926;2022-07-01T01:14:43;3.53;;;3.27;;
16813;SDS011;8524;57.650;11.926;2022-07-01T01:17:10;3.63;;;3.33;;
16813;SDS011;8524;57.650;11.926;2022-07-01T01:19:38;3.95;;;3.55;;
16813;SDS011;8524;57.650;11.926;2022-07-01T01:22:06;3.80;;;3.50;;
16813;SDS011;8524;57.650;11.926;2022-07-01T01:24:33;3.83;;;3.43;;
16813;SDS011;8524;57.650;11.926;2022-07-01T01:27:01;4.60;;;4.10;;
16813;SDS011;8524;57.650;11.926;2022-07-01T01:29:28;3.93;;;3.50;;
16813;SDS011;8524;57.650;11.926;2022-07-01T01:31:55;3.90;;;3.50;;
16813;SDS011;8524;57.650;11.926;2022-07-01T01:34:22;3.67;;;3.37;;
16813;SDS011;8524;57.650;11.926;2022-07-01T01:36:49;3.60;;;3.17;;
16813;SDS011;8524;57.650;11.926;2022-07-01T01:39:18;4.07;;;3.67;;
16813;SDS011;8524;57.650;11.926;2022-07-01T01:41:45;4.00;;;3.60;;
16813;SDS011;8524;57.650;11.926;2022-07-01T01:44:12;5.63;;;3.87;;
16813;SDS011;8524;57.650;11.926;2022-07-01T01:46:39;4.00;;;3.70;;
16813;SDS011;8524;57.650;11.926;2022-07-01T01:49:07;4.17;;;3.77;;
16813;SDS011;8524;57.650;11.926;2022-07-01T01:51:34;4.00;;;3.70;;
16813;SDS011;8524;57.650;11.926;2022-07-01T01:54:01;3.60;;;3.40;;
16813;SDS011;8524;57.650;11.926;2022-07-01T01:56:30;4.87;;;4.50;;
16813;SDS011;8524;57.650;11.926;2022-07-01T01:58:57;3.97;;;3.67;;
16813;SDS011;8524;57.650;11.926;2022-07-01T02:01:24;4.13;;;3.70;;
16813;SDS011;8524;57.650;11.926;2022-07-01T02:03:52;3.77;;;3.47;;
16813;SDS011;8524;57.650;11.926;2022-07-01T02:06:20;3.93;;;3.63;;
16813;SDS011;8524;57.650;11.926;2022-07-01T02:08:47;3.80;;;3.50;;
16813;SDS011;8524;57.650;11.926;2022-07-01T02:11:14;4.33;;;3.93;;
16813;SDS011;8524;57.650;11.926;2022-07-01T02:13:43;3.57;;;3.27;;
16813;SDS011;8524;57.650;11.926;2022-07-01T02:16:10;3.60;;;3.30;;
16813;SDS011;8524;57.650;11.926;2022-07-01T02:18:38;3.97;;;3.67;;
16813;SDS011;8524;57.650;11.926;2022-07-01T02:21:05;4.15;;;3.85;;
16813;SDS011;8524;57.650;11.926;2022-07-01T02:23:32;3.93;;;3.63;;
16813;SDS011;8524;57.650;11.926;2022-07-01T02:25:59;4.10;;;3.80;;
16813;SDS011;8524;57.650;11.926;2022-07-01T02:28:26;3.63;;;3.43;;
16813;SDS011;8524;57.650;11.926;2022-07-01T02:30:54;4.50;;;4.10;;
16813;SDS011;8524;57.650;11.926;2022-07-01T02:33:21;4.80;;;4.40;;
16813;SDS011;8524;57.650;11.926;2022-07-01T02:35:48;4.63;;;4.33;;
16813;SDS011;8524;57.650;11.926;2022-07-01T02:38:15;5.10;;;4.70;;
16813;SDS011;8524;57.650;11.926;2022-07-01T02:40:43;4.17;;;3.87;;
16813;SDS011;8524;57.650;11.926;2022-07-01T02:43:10;5.20;;;4.70;;
16813;SDS011;8524;57.650;11.926;2022-07-01T02:45:37;4.90;;;4.50;;
16813;SDS011;8524;57.650;11.926;2022-07-01T02:48:06;4.47;;;4.17;;
16813;SDS011;8524;57.650;11.926;2022-07-01T02:50:33;4.93;;;4.50;;
16813;SDS011;8524;57.650;11.926;2022-07-01T02:53:00;4.93;;;4.43;;
16813;SDS011;8524;57.650;11.926;2022-07-01T02:55:28;5.07;;;4.67;;
16813;SDS011;8524;57.650;11.926;2022-07-01T02:57:55;4.93;;;4.63;;
16813;SDS011;8524;57.650;11.926;2022-07-01T03:00:23;5.43;;;5.03;;
16813;SDS011;8524;57.650;11.926;2022-07-01T03:02:50;5.67;;;5.17;;
16813;SDS011;8524;57.650;11.926;2022-07-01T03:05:19;5.43;;;4.93;;
16813;SDS011;8524;57.650;11.926;2022-07-01T03:07:46;4.70;;;4.40;;
16813;SDS011;8524;57.650;11.926;2022-07-01T03:10:13;5.20;;;4.70;;
16813;SDS011;8524;57.650;11.926;2022-07-01T03:12:40;5.53;;;5.03;;
16813;SDS011;8524;57.650;11.926;2022-07-01T03:15:07;5.40;;;4.90;;
16813;SDS011;8524;57.650;11.926;2022-07-01T03:17:36;4.70;;;4.30;;
16813;SDS011;8524;57.650;11.926;2022-07-01T03:20:05;4.80;;;4.40;;
16813;SDS011;8524;57.650;11.926;2022-07-01T03:22:35;4.73;;;4.40;;
16813;SDS011;8524;57.650;11.926;2022-07-01T03:25:03;4.17;;;3.87;;
16813;SDS011;8524;57.650;11.926;2022-07-01T03:27:32;4.37;;;4.07;;
16813;SDS011;8524;57.650;11.926;2022-07-01T03:29:59;4.47;;;4.17;;
16813;SDS011;8524;57.650;11.926;2022-07-01T03:32:27;4.40;;;4.00;;
16813;SDS011;8524;57.650;11.926;2022-07-01T03:34:54;4.83;;;4.40;;
16813;SDS011;8524;57.650;11.926;2022-07-01T03:37:21;4.40;;;4.10;;
16813;SDS011;8524;57.650;11.926;2022-07-01T03:39:50;4.37;;;4.07;;
16813;SDS011;8524;57.650;11.926;2022-07-01T03:42:18;4.40;;;4.00;;
16813;SDS011;8524;57.650;11.926;2022-07-01T03:44:45;4.10;;;3.80;;
16813;SDS011;8524;57.650;11.926;2022-07-01T03:47:12;4.00;;;3.70;;
16813;SDS011;8524;57.650;11.926;2022-07-01T03:49:39;3.90;;;3.50;;
16813;SDS011;8524;57.650;11.926;2022-07-01T03:52:06;3.93;;;3.60;;
16813;SDS011;8524;57.650;11.926;2022-07-01T03:54:33;3.40;;;3.03;;
16813;SDS011;8524;57.650;11.926;2022-07-01T03:57:05;3.50;;;3.20;;
16813;SDS011;8524;57.650;11.926;2022-07-01T03:59:34;3.47;;;2.93;;
16813;SDS011;8524;57.650;11.926;2022-07-01T04:02:05;3.50;;;3.20;;
16813;SDS011;8524;57.650;11.926;2022-07-01T04:04:33;3.50;;;3.20;;
16813;SDS011;8524;57.650;11.926;2022-07-01T04:07:01;3.40;;;3.10;;
16813;SDS011;8524;57.650;11.926;2022-07-01T04:09:29;3.03;;;2.73;;
16813;SDS011;8524;57.650;11.926;2022-07-01T04:11:57;3.67;;;3.27;;
16813;SDS011;8524;57.650;11.926;2022-07-01T04:14:26;4.53;;;3.43;;
16813;SDS011;8524;57.650;11.926;2022-07-01T04:16:52;3.40;;;3.10;;
16813;SDS011;8524;57.650;11.926;2022-07-01T04:19:20;4.07;;;3.00;;
16813;SDS011;8524;57.650;11.926;2022-07-01T04:21:47;3.40;;;2.93;;
16813;SDS011;8524;57.650;11.926;2022-07-01T04:24:31;3.77;;;3.20;;
16813;SDS011;8524;57.650;11.926;2022-07-01T04:26:59;3.40;;;3.10;;
16813;SDS011;8524;57.650;11.926;2022-07-01T04:29:28;4.33;;;2.87;;
16813;SDS011;8524;57.650;11.926;2022-07-01T04:31:55;3.00;;;2.80;;
16813;SDS011;8524;57.650;11.926;2022-07-01T04:34:23;3.43;;;2.70;;
16813;SDS011;8524;57.650;11.926;2022-07-01T04:36:50;3.43;;;2.70;;
16813;SDS011;8524;57.650;11.926;2022-07-01T04:39:17;3.10;;;2.60;;
16813;SDS011;8524;57.650;11.926;2022-07-01T04:41:44;3.50;;;2.90;;
16813;SDS011;8524;57.650;11.926;2022-07-01T04:44:28;3.13;;;2.83;;
16813;SDS011;8524;57.650;11.926;2022-07-01T04:46:55;2.77;;;2.57;;
16813;SDS011;8524;57.650;11.926;2022-07-01T04:49:23;3.30;;;3.00;;
16813;SDS011;8524;57.650;11.926;2022-07-01T04:51:50;3.27;;;2.60;;
16813;SDS011;8524;57.650;11.926;2022-07-01T04:54:17;3.10;;;2.90;;
16813;SDS011;8524;57.650;11.926;2022-07-01T04:56:45;3.00;;;2.70;;
16813;SDS011;8524;57.650;11.926;2022-07-01T04:59:12;3.43;;;2.83;;
16813;SDS011;8524;57.650;11.926;2022-07-01T05:01:41;2.67;;;2.47;;
16813;SDS011;8524;57.650;11.926;2022-07-01T05:04:08;3.53;;;2.60;;
16813;SDS011;8524;57.650;11.926;2022-07-01T05:06:36;3.10;;;2.67;;
16813;SDS011;8524;57.650;11.926;2022-07-01T05:09:03;3.20;;;2.67;;
16813;SDS011;8524;57.650;11.926;2022-07-01T05:11:30;2.60;;;2.33;;
16813;SDS011;8524;57.650;11.926;2022-07-01T05:13:58;2.80;;;2.20;;
16813;SDS011;8524;57.650;11.926;2022-07-01T05:16:25;3.07;;;2.40;;
16813;SDS011;8524;57.650;11.926;2022-07-01T05:18:53;3.60;;;2.57;;
16813;SDS011;8524;57.650;11.926;2022-07-01T05:21:38;3.70;;;2.50;;
16813;SDS011;8524;57.650;11.926;2022-07-01T05:24:24;4.17;;;2.80;;
16813;SDS011;8524;57.650;11.926;2022-07-01T05:26:54;2.77;;;2.43;;
16813;SDS011;8524;57.650;11.926;2022-07-01T05:29:21;2.70;;;2.40;;
16813;SDS011;8524;57.650;11.926;2022-07-01T05:31:48;4.00;;;2.83;;
16813;SDS011;8524;57.650;11.926;2022-07-01T05:34:17;2.60;;;2.40;;
16813;SDS011;8524;57.650;11.926;2022-07-01T05:36:44;4.37;;;2.40;;
16813;SDS011;8524;57.650;11.926;2022-07-01T05:39:11;2.27;;;2.00;;
16813;SDS011;8524;57.650;11.926;2022-07-01T05:41:38;2.90;;;2.20;;
16813;SDS011;8524;57.650;11.926;2022-07-01T05:44:05;2.40;;;2.10;;
16813;SDS011;8524;57.650;11.926;2022-07-01T05:46:32;2.27;;;2.00;;
16813;SDS011;8524;57.650;11.926;2022-07-01T05:48:59;2.47;;;1.90;;
16813;SDS011;8524;57.650;11.926;2022-07-01T05:51:27;2.87;;;1.80;;
16813;SDS011;8524;57.650;11.926;2022-07-01T05:53:54;2.40;;;1.83;;
16813;SDS011;8524;57.650;11.926;2022-07-01T05:56:23;2.13;;;1.73;;
16813;SDS011;8524;57.650;11.926;2022-07-01T05:58:50;1.90;;;1.70;;
16813;SDS011;8524;57.650;11.926;2022-07-01T06:01:18;3.57;;;1.63;;
16813;SDS011;8524;57.650;11.926;2022-07-01T06:03:45;2.30;;;1.90;;
16813;SDS011;8524;57.650;11.926;2022-07-01T06:06:12;2.27;;;2.07;;
16813;SDS011;8524;57.650;11.926;2022-07-01T06:08:40;3.10;;;1.60;;
16813;SDS011;8524;57.650;11.926;2022-07-01T06:11:07;1.87;;;1.70;;
16813;SDS011;8524;57.650;11.926;2022-07-01T06:13:34;1.97;;;1.70;;
16813;SDS011;8524;57.650;11.926;2022-07-01T06:16:01;2.40;;;1.87;;
16813;SDS011;8524;57.650;11.926;2022-07-01T06:18:28;3.40;;;1.80;;
16813;SDS011;8524;57.650;11.926;2022-07-01T06:20:55;3.03;;;2.00;;
16813;SDS011;8524;57.650;11.926;2022-07-01T06:23:22;3.97;;;1.87;;
16813;SDS011;8524;57.650;11.926;2022-07-01T06:25:51;1.50;;;1.40;;
16813;SDS011;8524;57.650;11.926;2022-07-01T06:28:18;2.00;;;1.53;;
16813;SDS011;8524;57.650;11.926;2022-07-01T06:30:45;2.50;;;1.63;;
16813;SDS011;8524;57.650;11.926;2022-07-01T06:33:12;3.43;;;1.90;;
16813;SDS011;8524;57.650;11.926;2022-07-01T06:35:39;1.70;;;1.60;;
16813;SDS011;8524;57.650;11.926;2022-07-01T06:38:06;2.17;;;1.67;;
16813;SDS011;8524;57.650;11.926;2022-07-01T06:40:33;2.87;;;1.70;;
16813;SDS011;8524;57.650;11.926;2022-07-01T06:43:02;2.90;;;1.77;;
16813;SDS011;8524;57.650;11.926;2022-07-01T06:45:29;2.27;;;1.60;;
16813;SDS011;8524;57.650;11.926;2022-07-01T06:47:57;2.58;;;1.95;;
16813;SDS011;8524;57.650;11.926;2022-07-01T06:50:24;1.60;;;1.50;;
16813;SDS011;8524;57.650;11.926;2022-07-01T06:52:51;1.60;;;1.50;;
16813;SDS011;8524;57.650;11.926;2022-07-01T06:55:18;2.17;;;1.70;;
16813;SDS011;8524;57.650;11.926;2022-07-01T06:57:45;1.70;;;1.60;;
16813;SDS011;8524;57.650;11.926;2022-07-01T07:00:13;2.33;;;1.70;;
16813;SDS011;8524;57.650;11.926;2022-07-01T07:02:41;1.87;;;1.77;;
16813;SDS011;8524;57.650;11.926;2022-07-01T07:05:08;2.67;;;1.77;;
16813;SDS011;8524;57.650;11.926;2022-07-01T07:07:35;2.17;;;1.70;;
16813;SDS011;8524;57.650;11.926;2022-07-01T07:10:02;2.33;;;1.83;;
16813;SDS011;8524;57.650;11.926;2022-07-01T07:12:30;2.63;;;1.70;;
16813;SDS011;8524;57.650;11.926;2022-07-01T07:14:57;2.63;;;1.80;;
16813;SDS011;8524;57.650;11.926;2022-07-01T07:17:26;2.45;;;1.70;;
16813;SDS011;8524;57.650;11.926;2022-07-01T07:19:53;2.10;;;1.90;;
16813;SDS011;8524;57.650;11.926;2022-07-01T07:22:20;1.97;;;1.87;;
16813;SDS011;8524;57.650;11.926;2022-07-01T07:24:48;2.08;;;1.52;;
16813;SDS011;8524;57.650;11.926;2022-07-01T07:27:15;2.25;;;2.03;;
16813;SDS011;8524;57.650;11.926;2022-07-01T07:29:42;1.95;;;1.75;;
16813;SDS011;8524;57.650;11.926;2022-07-01T07:32:09;3.17;;;1.92;;
16813;SDS011;8524;57.650;11.926;2022-07-01T07:34:37;2.03;;;1.80;;
16813;SDS011;8524;57.650;11.926;2022-07-01T07:37:05;2.38;;;1.85;;
16813;SDS011;8524;57.650;11.926;2022-07-01T07:39:32;2.30;;;1.63;;
16813;SDS011;8524;57.650;11.926;2022-07-01T07:41:59;1.95;;;1.60;;
16813;SDS011;8524;57.650;11.926;2022-07-01T07:44:26;2.30;;;1.52;;
16813;SDS011;8524;57.650;11.926;2022-07-01T07:46:53;2.28;;;1.83;;
16813;SDS011;8524;57.650;11.926;2022-07-01T07:49:21;2.22;;;1.48;;
16813;SDS011;8524;57.650;11.926;2022-07-01T07:51:50;2.45;;;2.00;;
16813;SDS011;8524;57.650;11.926;2022-07-01T07:54:17;2.63;;;1.77;;
16813;SDS011;8524;57.650;11.926;2022-07-01T07:56:44;1.90;;;1.60;;
16813;SDS011;8524;57.650;11.926;2022-07-01T07:59:12;1.70;;;1.60;;
16813;SDS011;8524;57.650;11.926;2022-07-01T08:01:39;2.42;;;1.70;;
16813;SDS011;8524;57.650;11.926;2022-07-01T08:04:06;2.65;;;1.83;;
16813;SDS011;8524;57.650;11.926;2022-07-01T08:06:33;2.05;;;1.90;;
16813;SDS011;8524;57.650;11.926;2022-07-01T08:09:01;2.28;;;1.90;;
16813;SDS011;8524;57.650;11.926;2022-07-01T08:11:29;2.33;;;2.00;;
16813;SDS011;8524;57.650;11.926;2022-07-01T08:13:56;3.92;;;1.95;;
16813;SDS011;8524;57.650;11.926;2022-07-01T08:16:23;2.13;;;1.92;;
16813;SDS011;8524;57.650;11.926;2022-07-01T08:18:50;3.70;;;1.90;;
16813;SDS011;8524;57.650;11.926;2022-07-01T08:21:17;1.85;;;1.75;;
16813;SDS011;8524;57.650;11.926;2022-07-01T08:23:44;2.05;;;1.90;;
16813;SDS011;8524;57.650;11.926;2022-07-01T08:26:12;1.58;;;1.48;;
16813;SDS011;8524;57.650;11.926;2022-07-01T08:28:41;3.05;;;1.70;;
16813;SDS011;8524;57.650;11.926;2022-07-01T08:31:09;2.28;;;1.98;;
16813;SDS011;8524;57.650;11.926;2022-07-01T08:33:36;3.95;;;2.10;;
16813;SDS011;8524;57.650;11.926;2022-07-01T08:36:04;2.72;;;2.28;;
16813;SDS011;8524;57.650;11.926;2022-07-01T08:38:31;3.95;;;1.92;;
16813;SDS011;8524;57.650;11.926;2022-07-01T08:40:59;2.53;;;2.08;;
16813;SDS011;8524;57.650;11.926;2022-07-01T08:43:28;2.33;;;1.85;;
16813;SDS011;8524;57.650;11.926;2022-07-01T08:45:55;2.40;;;1.90;;
16813;SDS011;8524;57.650;11.926;2022-07-01T08:48:26;2.90;;;1.80;;
16813;SDS011;8524;57.650;11.926;2022-07-01T08:50:54;2.38;;;1.90;;
16813;SDS011;8524;57.650;11.926;2022-07-01T08:53:21;2.65;;;1.85;;
16813;SDS011;8524;57.650;11.926;2022-07-01T08:55:48;3.25;;;1.95;;
16813;SDS011;8524;57.650;11.926;2022-07-01T08:58:34;3.20;;;2.00;;
16813;SDS011;8524;57.650;11.926;2022-07-01T09:01:11;1.83;;;1.73;;
16813;SDS011;8524;57.650;11.926;2022-07-01T09:03:40;2.20;;;2.00;;
16813;SDS011;8524;57.650;11.926;2022-07-01T09:06:10;2.28;;;2.08;;
16813;SDS011;8524;57.650;11.926;2022-07-01T09:08:39;3.08;;;2.10;;
16813;SDS011;8524;57.650;11.926;2022-07-01T09:11:13;2.47;;;2.28;;
16813;SDS011;8524;57.650;11.926;2022-07-01T09:13:43;2.88;;;2.00;;
16813;SDS011;8524;57.650;11.926;2022-07-01T09:16:11;2.33;;;2.13;;
16813;SDS011;8524;57.650;11.926;2022-07-01T09:18:39;2.45;;;2.20;;
16813;SDS011;8524;57.650;11.926;2022-07-01T09:21:07;2.72;;;2.10;;
16813;SDS011;8524;57.650;11.926;2022-07-01T09:23:34;2.00;;;1.83;;
16813;SDS011;8524;57.650;11.926;2022-07-01T09:26:02;2.63;;;2.40;;
16813;SDS011;8524;57.650;11.926;2022-07-01T09:28:29;2.65;;;2.33;;
16813;SDS011;8524;57.650;11.926;2022-07-01T09:30:58;2.20;;;1.90;;
16813;SDS011;8524;57.650;11.926;2022-07-01T09:33:25;2.50;;;2.30;;
16813;SDS011;8524;57.650;11.926;2022-07-01T09:35:55;2.63;;;2.28;;
16813;SDS011;8524;57.650;11.926;2022-07-01T09:38:24;3.40;;;2.37;;
16813;SDS011;8524;57.650;11.926;2022-07-01T09:40:53;3.08;;;2.25;;
16813;SDS011;8524;57.650;11.926;2022-07-01T09:43:21;2.75;;;2.20;;
16813;SDS011;8524;57.650;11.926;2022-07-01T09:45:53;2.35;;;2.15;;
16813;SDS011;8524;57.650;11.926;2022-07-01T09:48:24;3.20;;;2.53;;
16813;SDS011;8524;57.650;11.926;2022-07-01T09:50:52;3.30;;;2.55;;
16813;SDS011;8524;57.650;11.926;2022-07-01T09:53:19;4.65;;;2.38;;
16813;SDS011;8524;57.650;11.926;2022-07-01T09:55:46;3.33;;;2.58;;
16813;SDS011;8524;57.650;11.926;2022-07-01T09:58:13;2.75;;;2.47;;
16813;SDS011;8524;57.650;11.926;2022-07-01T10:00:41;3.78;;;2.70;;
16813;SDS011;8524;57.650;11.926;2022-07-01T10:03:08;3.10;;;2.80;;
16813;SDS011;8524;57.650;11.926;2022-07-01T10:05:38;2.97;;;2.67;;
16813;SDS011;8524;57.650;11.926;2022-07-01T10:08:13;3.15;;;2.85;;
16813;SDS011;8524;57.650;11.926;2022-07-01T10:14:11;2.28;;;2.08;;
16813;SDS011;8524;57.650;11.926;2022-07-01T10:16:39;2.33;;;2.13;;
16813;SDS011;8524;57.650;11.926;2022-07-01T10:19:23;2.20;;;2.00;;
16813;SDS011;8524;57.650;11.926;2022-07-01T10:21:53;3.03;;;2.00;;
16813;SDS011;8524;57.650;11.926;2022-07-01T10:24:24;2.30;;;2.10;;
16813;SDS011;8524;57.650;11.926;2022-07-01T10:26:53;2.50;;;2.30;;
16813;SDS011;8524;57.650;11.926;2022-07-01T10:29:26;2.92;;;1.90;;
16813;SDS011;8524;57.650;11.926;2022-07-01T10:32:01;2.38;;;2.17;;
16813;SDS011;8524;57.650;11.926;2022-07-01T10:34:33;2.53;;;2.13;;
16813;SDS011;8524;57.650;11.926;2022-07-01T10:37:04;2.50;;;2.30;;
16813;SDS011;8524;57.650;11.926;2022-07-01T10:42:30;2.15;;;1.95;;
16813;SDS011;8524;57.650;11.926;2022-07-01T10:45:02;3.85;;;2.38;;
16813;SDS011;8524;57.650;11.926;2022-07-01T10:47:33;2.17;;;1.95;;
16813;SDS011;8524;57.650;11.926;2022-07-01T10:50:05;4.70;;;2.30;;
16813;SDS011;8524;57.650;11.926;2022-07-01T10:52:35;2.30;;;1.92;;
16813;SDS011;8524;57.650;11.926;2022-07-01T10:55:04;2.00;;;1.83;;
16813;SDS011;8524;57.650;11.926;2022-07-01T10:57:34;2.10;;;1.88;;
16813;SDS011;8524;57.650;11.926;2022-07-01T11:03:07;2.08;;;1.88;;
16813;SDS011;8524;57.650;11.926;2022-07-01T11:05:36;3.80;;;1.70;;
16813;SDS011;8524;57.650;11.926;2022-07-01T11:08:05;2.45;;;1.80;;
16813;SDS011;8524;57.650;11.926;2022-07-01T11:10:33;3.35;;;1.70;;
16813;SDS011;8524;57.650;11.926;2022-07-01T11:13:01;5.03;;;2.10;;
16813;SDS011;8524;57.650;11.926;2022-07-01T11:15:29;2.17;;;1.90;;
16813;SDS011;8524;57.650;11.926;2022-07-01T11:17:57;1.90;;;1.70;;
16813;SDS011;8524;57.650;11.926;2022-07-01T11:20:25;2.10;;;1.70;;
16813;SDS011;8524;57.650;11.926;2022-07-01T11:22:55;1.98;;;1.88;;
16813;SDS011;8524;57.650;11.926;2022-07-01T11:25:23;4.70;;;2.20;;
16813;SDS011;8524;57.650;11.926;2022-07-01T11:27:51;2.10;;;1.90;;
16813;SDS011;8524;57.650;11.926;2022-07-01T11:30:19;2.25;;;2.03;;
16813;SDS011;8524;57.650;11.926;2022-07-01T11:32:48;3.05;;;2.13;;
16813;SDS011;8524;57.650;11.926;2022-07-01T11:35:17;3.17;;;1.90;;
16813;SDS011;8524;57.650;11.926;2022-07-01T11:38:04;2.40;;;1.88;;
16813;SDS011;8524;57.650;11.926;2022-07-01T11:40:50;2.22;;;1.90;;
16813;SDS011;8524;57.650;11.926;2022-07-01T11:43:19;1.80;;;1.70;;
16813;SDS011;8524;57.650;11.926;2022-07-01T11:45:47;4.10;;;2.10;;
16813;SDS011;8524;57.650;11.926;2022-07-01T11:48:27;2.25;;;2.10;;
16813;SDS011;8524;57.650;11.926;2022-07-01T11:50:59;2.50;;;2.30;;
16813;SDS011;8524;57.650;11.926;2022-07-01T11:53:27;2.75;;;2.40;;
16813;SDS011;8524;57.650;11.926;2022-07-01T11:55:56;2.25;;;2.05;;
16813;SDS011;8524;57.650;11.926;2022-07-01T11:58:23;13.50;;;3.10;;
16813;SDS011;8524;57.650;11.926;2022-07-01T12:00:50;8.30;;;2.22;;
16813;SDS011;8524;57.650;11.926;2022-07-01T12:03:29;3.83;;;2.03;;
16813;SDS011;8524;57.650;11.926;2022-07-01T12:05:57;3.60;;;2.05;;
16813;SDS011;8524;57.650;11.926;2022-07-01T12:08:24;2.83;;;2.60;;
16813;SDS011;8524;57.650;11.926;2022-07-01T12:10:52;4.30;;;2.60;;
16813;SDS011;8524;57.650;11.926;2022-07-01T12:13:21;3.20;;;2.35;;
16813;SDS011;8524;57.650;11.926;2022-07-01T12:15:49;5.93;;;2.97;;
16813;SDS011;8524;57.650;11.926;2022-07-01T12:18:16;7.57;;;3.30;;
16813;SDS011;8524;57.650;11.926;2022-07-01T12:20:50;2.95;;;2.63;;
16813;SDS011;8524;57.650;11.926;2022-07-01T12:23:19;4.00;;;2.65;;
16813;SDS011;8524;57.650;11.926;2022-07-01T12:25:47;3.85;;;3.20;;
16813;SDS011;8524;57.650;11.926;2022-07-01T12:28:30;3.92;;;3.35;;
16813;SDS011;8524;57.650;11.926;2022-07-01T12:30:59;4.38;;;3.00;;
16813;SDS011;8524;57.650;11.926;2022-07-01T12:33:31;3.53;;;3.22;;
16813;SDS011;8524;57.650;11.926;2022-07-01T12:36:00;4.03;;;3.53;;
16813;SDS011;8524;57.650;11.926;2022-07-01T12:38:28;3.63;;;3.28;;
16813;SDS011;8524;57.650;11.926;2022-07-01T12:40:55;4.88;;;3.45;;
16813;SDS011;8524;57.650;11.926;2022-07-01T12:43:22;4.15;;;3.30;;
16813;SDS011;8524;57.650;11.926;2022-07-01T12:45:56;7.10;;;3.22;;
16813;SDS011;8524;57.650;11.926;2022-07-01T12:48:24;5.07;;;3.17;;
16813;SDS011;8524;57.650;11.926;2022-07-01T12:50:52;5.50;;;3.35;;
16813;SDS011;8524;57.650;11.926;2022-07-01T12:53:20;5.53;;;3.70;;
16813;SDS011;8524;57.650;11.926;2022-07-01T12:55:49;7.93;;;3.97;;
16813;SDS011;8524;57.650;11.926;2022-07-01T12:58:18;4.37;;;3.97;;
16813;SDS011;8524;57.650;11.926;2022-07-01T13:00:46;4.30;;;3.90;;
16813;SDS011;8524;57.650;11.926;2022-07-01T13:03:18;4.45;;;4.05;;
16813;SDS011;8524;57.650;11.926;2022-07-01T13:05:47;4.88;;;4.47;;
16813;SDS011;8524;57.650;11.926;2022-07-01T13:08:16;6.65;;;5.22;;
16813;SDS011;8524;57.650;11.926;2022-07-01T13:10:44;6.47;;;5.05;;
16813;SDS011;8524;57.650;11.926;2022-07-01T13:13:12;6.60;;;5.90;;
16813;SDS011;8524;57.650;11.926;2022-07-01T13:15:39;7.27;;;6.57;;
16813;SDS011;8524;57.650;11.926;2022-07-01T13:18:07;7.43;;;5.80;;
16813;SDS011;8524;57.650;11.926;2022-07-01T13:20:36;6.83;;;5.93;;
16813;SDS011;8524;57.650;11.926;2022-07-01T13:23:05;6.47;;;5.90;;
16813;SDS011;8524;57.650;11.926;2022-07-01T13:25:32;7.13;;;5.67;;
16813;SDS011;8524;57.650;11.926;2022-07-01T13:27:59;6.83;;;5.73;;
16813;SDS011;8524;57.650;11.926;2022-07-01T13:30:26;5.90;;;5.40;;
16813;SDS011;8524;57.650;11.926;2022-07-01T13:32:53;6.50;;;5.15;;
16813;SDS011;8524;57.650;11.926;2022-07-01T13:35:20;5.97;;;5.35;;
16813;SDS011;8524;57.650;11.926;2022-07-01T13:37:49;7.85;;;5.57;;
16813;SDS011;8524;57.650;11.926;2022-07-01T13:40:18;6.63;;;6.03;;
16813;SDS011;8524;57.650;11.926;2022-07-01T13:42:46;6.13;;;5.38;;
16813;SDS011;8524;57.650;11.926;2022-07-01T13:45:14;6.03;;;5.43;;
16813;SDS011;8524;57.650;11.926;2022-07-01T13:47:40;6.57;;;6.00;;
16813;SDS011;8524;57.650;11.926;2022-07-01T13:50:08;5.75;;;5.28;;
16813;SDS011;8524;57.650;11.926;2022-07-01T13:52:36;6.50;;;5.85;;
16813;SDS011;8524;57.650;11.926;2022-07-01T13:55:05;6.32;;;5.60;;
16813;SDS011;8524;57.650;11.926;2022-07-01T13:57:32;5.93;;;5.43;;
16813;SDS011;8524;57.650;11.926;2022-07-01T13:59:59;6.10;;;5.63;;
16813;SDS011;8524;57.650;11.926;2022-07-01T14:02:26;7.25;;;6.65;;
16813;SDS011;8524;57.650;11.926;2022-07-01T14:04:53;6.32;;;5.72;;
16813;SDS011;8524;57.650;11.926;2022-07-01T14:07:20;6.47;;;5.50;;
16813;SDS011;8524;57.650;11.926;2022-07-01T14:09:47;5.90;;;5.43;;
16813;SDS011;8524;57.650;11.926;2022-07-01T14:12:15;6.50;;;6.00;;
16813;SDS011;8524;57.650;11.926;2022-07-01T14:14:42;5.93;;;5.47;;
16813;SDS011;8524;57.650;11.926;2022-07-01T14:17:09;6.90;;;6.30;;
16813;SDS011;8524;57.650;11.926;2022-07-01T14:19:36;5.70;;;5.30;;
16813;SDS011;8524;57.650;11.926;2022-07-01T14:22:03;6.60;;;6.10;;
16813;SDS011;8524;57.650;11.926;2022-07-01T14:24:31;5.60;;;5.13;;
16813;SDS011;8524;57.650;11.926;2022-07-01T14:26:58;5.93;;;5.53;;
16813;SDS011;8524;57.650;11.926;2022-07-01T14:29:26;5.97;;;5.47;;
16813;SDS011;8524;57.650;11.926;2022-07-01T14:31:54;5.55;;;5.07;;
16813;SDS011;8524;57.650;11.926;2022-07-01T14:34:21;5.68;;;5.18;;
16813;SDS011;8524;57.650;11.926;2022-07-01T14:36:48;6.40;;;5.80;;
16813;SDS011;8524;57.650;11.926;2022-07-01T14:39:15;5.78;;;5.28;;
16813;SDS011;8524;57.650;11.926;2022-07-01T14:41:42;6.00;;;5.40;;
16813;SDS011;8524;57.650;11.926;2022-07-01T14:44:14;5.68;;;5.18;;
16813;SDS011;8524;57.650;11.926;2022-07-01T14:46:42;5.20;;;4.80;;
16813;SDS011;8524;57.650;11.926;2022-07-01T14:49:09;5.63;;;5.17;;
16813;SDS011;8524;57.650;11.926;2022-07-01T14:51:37;5.63;;;5.23;;
16813;SDS011;8524;57.650;11.926;2022-07-01T14:54:04;5.93;;;5.37;;
16813;SDS011;8524;57.650;11.926;2022-07-01T14:56:31;5.50;;;5.03;;
16813;SDS011;8524;57.650;11.926;2022-07-01T14:58:58;5.20;;;4.80;;
16813;SDS011;8524;57.650;11.926;2022-07-01T15:01:25;5.20;;;4.80;;
16813;SDS011;8524;57.650;11.926;2022-07-01T15:03:53;5.67;;;5.17;;